sensor_id;sensor_type;location;lat;lon;timestamp;P1;durP1;ratioP1;P2;durP2;ratioP2
9128;SDS011;4599;50.906;6.786;2023-07-02T00:01:13;8.03;;;2.77;;
9128;SDS011;4599;50.906;6.786;2023-07-02T00:05:14;7.07;;;2.63;;
9128;SDS011;4599;50.906;6.786;2023-07-02T00:09:16;5.07;;;2.70;;
9128;SDS011;4599;50.906;6.786;2023-07-02T00:13:19;4.70;;;2.50;;
9128;SDS011;4599;50.906;6.786;2023-07-02T00:17:21;7.90;;;2.50;;
9128;SDS011;4599;50.906;6.786;2023-07-02T00:21:22;7.63;;;2.60;;
9128;SDS011;4599;50.906;6.786;2023-07-02T00:25:24;5.87;;;2.87;;
9128;SDS011;4599;50.906;6.786;2023-07-02T00:29:27;10.20;;;3.30;;
9128;SDS011;4599;50.906;6.786;2023-07-02T00:33:29;6.10;;;3.03;;
9128;SDS011;4599;50.906;6.786;2023-07-02T00:37:32;9.73;;;3.00;;
9128;SDS011;4599;50.906;6.786;2023-07-02T00:41:33;5.67;;;2.90;;
9128;SDS011;4599;50.906;6.786;2023-07-02T00:45:36;5.30;;;3.30;;
9128;SDS011;4599;50.906;6.786;2023-07-02T00:49:38;5.70;;;3.80;;
9128;SDS011;4599;50.906;6.786;2023-07-02T00:53:40;8.37;;;3.47;;
9128;SDS011;4599;50.906;6.786;2023-07-02T00:57:42;6.97;;;3.60;;
9128;SDS011;4599;50.906;6.786;2023-07-02T01:01:45;7.83;;;4.23;;
9128;SDS011;4599;50.906;6.786;2023-07-02T01:05:46;10.73;;;4.10;;
9128;SDS011;4599;50.906;6.786;2023-07-02T01:09:48;10.23;;;4.80;;
9128;SDS011;4599;50.906;6.786;2023-07-02T01:13:50;10.93;;;5.10;;
9128;SDS011;4599;50.906;6.786;2023-07-02T01:17:55;8.63;;;4.43;;
9128;SDS011;4599;50.906;6.786;2023-07-02T01:21:59;11.33;;;4.93;;
9128;SDS011;4599;50.906;6.786;2023-07-02T01:26:02;11.23;;;5.30;;
9128;SDS011;4599;50.906;6.786;2023-07-02T01:30:04;11.00;;;5.40;;
9128;SDS011;4599;50.906;6.786;2023-07-02T01:34:06;15.70;;;5.50;;
9128;SDS011;4599;50.906;6.786;2023-07-02T01:38:09;11.13;;;5.63;;
9128;SDS011;4599;50.906;6.786;2023-07-02T01:42:11;12.80;;;6.40;;
9128;SDS011;4599;50.906;6.786;2023-07-02T01:46:13;10.07;;;6.27;;
9128;SDS011;4599;50.906;6.786;2023-07-02T01:50:15;14.73;;;7.00;;
9128;SDS011;4599;50.906;6.786;2023-07-02T01:54:18;12.63;;;7.17;;
9128;SDS011;4599;50.906;6.786;2023-07-02T01:58:20;14.97;;;6.57;;
9128;SDS011;4599;50.906;6.786;2023-07-02T02:02:21;15.83;;;7.03;;
9128;SDS011;4599;50.906;6.786;2023-07-02T02:06:23;15.87;;;7.67;;
9128;SDS011;4599;50.906;6.786;2023-07-02T02:10:26;13.63;;;7.50;;
9128;SDS011;4599;50.906;6.786;2023-07-02T02:14:28;13.70;;;7.60;;
9128;SDS011;4599;50.906;6.786;2023-07-02T02:18:29;16.57;;;7.70;;
9128;SDS011;4599;50.906;6.786;2023-07-02T02:22:30;14.60;;;7.83;;
9128;SDS011;4599;50.906;6.786;2023-07-02T02:26:34;13.13;;;7.73;;
9128;SDS011;4599;50.906;6.786;2023-07-02T02:30:35;19.27;;;8.57;;
9128;SDS011;4599;50.906;6.786;2023-07-02T02:34:37;17.53;;;8.73;;
9128;SDS011;4599;50.906;6.786;2023-07-02T02:38:38;14.37;;;8.33;;
9128;SDS011;4599;50.906;6.786;2023-07-02T02:42:41;14.93;;;7.87;;
9128;SDS011;4599;50.906;6.786;2023-07-02T02:46:43;13.37;;;7.93;;
9128;SDS011;4599;50.906;6.786;2023-07-02T02:50:45;17.17;;;8.67;;
9128;SDS011;4599;50.906;6.786;2023-07-02T02:54:47;17.33;;;8.80;;
9128;SDS011;4599;50.906;6.786;2023-07-02T02:58:50;14.93;;;7.73;;
9128;SDS011;4599;50.906;6.786;2023-07-02T03:02:51;17.70;;;8.90;;
9128;SDS011;4599;50.906;6.786;2023-07-02T03:06:53;14.43;;;8.87;;
9128;SDS011;4599;50.906;6.786;2023-07-02T03:10:54;17.60;;;9.27;;
9128;SDS011;4599;50.906;6.786;2023-07-02T03:14:57;17.63;;;9.80;;
9128;SDS011;4599;50.906;6.786;2023-07-02T03:18:59;18.33;;;9.67;;
9128;SDS011;4599;50.906;6.786;2023-07-02T03:23:00;18.77;;;9.43;;
9128;SDS011;4599;50.906;6.786;2023-07-02T03:27:02;14.60;;;9.33;;
9128;SDS011;4599;50.906;6.786;2023-07-02T03:31:06;21.50;;;10.57;;
9128;SDS011;4599;50.906;6.786;2023-07-02T03:35:07;18.33;;;9.57;;
9128;SDS011;4599;50.906;6.786;2023-07-02T03:39:09;18.70;;;10.23;;
9128;SDS011;4599;50.906;6.786;2023-07-02T03:43:11;18.70;;;9.50;;
9128;SDS011;4599;50.906;6.786;2023-07-02T03:47:14;15.77;;;9.80;;
9128;SDS011;4599;50.906;6.786;2023-07-02T03:51:15;19.20;;;10.03;;
9128;SDS011;4599;50.906;6.786;2023-07-02T03:55:19;21.27;;;10.87;;
9128;SDS011;4599;50.906;6.786;2023-07-02T03:59:20;20.17;;;10.70;;
9128;SDS011;4599;50.906;6.786;2023-07-02T04:03:23;17.90;;;11.23;;
9128;SDS011;4599;50.906;6.786;2023-07-02T04:07:25;19.03;;;11.07;;
9128;SDS011;4599;50.906;6.786;2023-07-02T04:11:26;21.00;;;11.50;;
9128;SDS011;4599;50.906;6.786;2023-07-02T04:15:28;21.37;;;11.87;;
9128;SDS011;4599;50.906;6.786;2023-07-02T04:19:30;18.83;;;11.13;;
9128;SDS011;4599;50.906;6.786;2023-07-02T04:23:32;19.90;;;11.93;;
9128;SDS011;4599;50.906;6.786;2023-07-02T04:27:34;23.37;;;11.30;;
9128;SDS011;4599;50.906;6.786;2023-07-02T04:31:51;23.47;;;12.30;;
9128;SDS011;4599;50.906;6.786;2023-07-02T04:35:54;23.73;;;12.93;;
9128;SDS011;4599;50.906;6.786;2023-07-02T04:39:56;24.73;;;13.43;;
9128;SDS011;4599;50.906;6.786;2023-07-02T04:43:57;26.13;;;13.27;;
9128;SDS011;4599;50.906;6.786;2023-07-02T04:47:59;24.23;;;13.50;;
9128;SDS011;4599;50.906;6.786;2023-07-02T04:52:02;24.67;;;13.43;;
9128;SDS011;4599;50.906;6.786;2023-07-02T04:56:03;25.87;;;13.40;;
9128;SDS011;4599;50.906;6.786;2023-07-02T05:00:09;24.33;;;13.13;;
9128;SDS011;4599;50.906;6.786;2023-07-02T05:04:11;28.10;;;14.87;;
9128;SDS011;4599;50.906;6.786;2023-07-02T05:08:14;27.50;;;14.60;;
9128;SDS011;4599;50.906;6.786;2023-07-02T05:12:15;23.67;;;13.93;;
9128;SDS011;4599;50.906;6.786;2023-07-02T05:16:17;26.03;;;14.83;;
9128;SDS011;4599;50.906;6.786;2023-07-02T05:20:18;25.37;;;13.93;;
9128;SDS011;4599;50.906;6.786;2023-07-02T05:24:21;28.33;;;14.50;;
9128;SDS011;4599;50.906;6.786;2023-07-02T05:28:23;29.70;;;14.27;;
9128;SDS011;4599;50.906;6.786;2023-07-02T05:32:25;26.97;;;14.33;;
9128;SDS011;4599;50.906;6.786;2023-07-02T05:36:26;23.93;;;14.53;;
9128;SDS011;4599;50.906;6.786;2023-07-02T05:40:29;21.63;;;13.27;;
9128;SDS011;4599;50.906;6.786;2023-07-02T05:44:30;25.70;;;14.47;;
9128;SDS011;4599;50.906;6.786;2023-07-02T05:48:32;26.57;;;15.13;;
9128;SDS011;4599;50.906;6.786;2023-07-02T05:52:34;29.00;;;14.03;;
9128;SDS011;4599;50.906;6.786;2023-07-02T05:56:37;29.47;;;14.80;;
9128;SDS011;4599;50.906;6.786;2023-07-02T06:00:38;26.40;;;14.43;;
9128;SDS011;4599;50.906;6.786;2023-07-02T06:04:39;29.37;;;14.57;;
9128;SDS011;4599;50.906;6.786;2023-07-02T06:08:41;27.10;;;15.03;;
9128;SDS011;4599;50.906;6.786;2023-07-02T06:12:44;28.77;;;14.63;;
9128;SDS011;4599;50.906;6.786;2023-07-02T06:16:45;27.63;;;14.80;;
9128;SDS011;4599;50.906;6.786;2023-07-02T06:20:47;26.23;;;15.57;;
9128;SDS011;4599;50.906;6.786;2023-07-02T06:24:49;26.37;;;13.87;;
9128;SDS011;4599;50.906;6.786;2023-07-02T06:28:52;28.03;;;14.97;;
9128;SDS011;4599;50.906;6.786;2023-07-02T06:32:53;31.37;;;15.47;;
9128;SDS011;4599;50.906;6.786;2023-07-02T06:36:56;29.90;;;15.30;;
9128;SDS011;4599;50.906;6.786;2023-07-02T06:40:57;29.43;;;15.73;;
9128;SDS011;4599;50.906;6.786;2023-07-02T06:45:00;26.73;;;15.07;;
9128;SDS011;4599;50.906;6.786;2023-07-02T06:49:02;30.67;;;15.43;;
9128;SDS011;4599;50.906;6.786;2023-07-02T06:53:03;27.90;;;14.53;;
9128;SDS011;4599;50.906;6.786;2023-07-02T06:57:04;35.77;;;16.17;;
9128;SDS011;4599;50.906;6.786;2023-07-02T07:01:07;29.60;;;15.47;;
9128;SDS011;4599;50.906;6.786;2023-07-02T07:05:09;28.10;;;14.00;;
9128;SDS011;4599;50.906;6.786;2023-07-02T07:09:10;26.73;;;15.03;;
9128;SDS011;4599;50.906;6.786;2023-07-02T07:13:12;23.80;;;13.70;;
9128;SDS011;4599;50.906;6.786;2023-07-02T07:17:15;25.87;;;13.53;;
9128;SDS011;4599;50.906;6.786;2023-07-02T07:21:16;23.83;;;13.57;;
9128;SDS011;4599;50.906;6.786;2023-07-02T07:25:18;27.13;;;13.47;;
9128;SDS011;4599;50.906;6.786;2023-07-02T07:29:19;30.03;;;13.87;;
9128;SDS011;4599;50.906;6.786;2023-07-02T07:33:23;22.03;;;12.13;;
9128;SDS011;4599;50.906;6.786;2023-07-02T07:37:25;25.80;;;12.53;;
9128;SDS011;4599;50.906;6.786;2023-07-02T07:41:26;22.50;;;12.47;;
9128;SDS011;4599;50.906;6.786;2023-07-02T07:45:28;25.77;;;13.00;;
9128;SDS011;4599;50.906;6.786;2023-07-02T07:49:31;24.03;;;11.93;;
9128;SDS011;4599;50.906;6.786;2023-07-02T07:53:37;20.50;;;11.90;;
9128;SDS011;4599;50.906;6.786;2023-07-02T07:57:39;26.30;;;12.93;;
9128;SDS011;4599;50.906;6.786;2023-07-02T08:01:41;21.37;;;11.43;;
9128;SDS011;4599;50.906;6.786;2023-07-02T08:05:44;28.83;;;12.67;;
9128;SDS011;4599;50.906;6.786;2023-07-02T08:09:52;25.27;;;12.73;;
9128;SDS011;4599;50.906;6.786;2023-07-02T08:13:53;24.20;;;12.50;;
9128;SDS011;4599;50.906;6.786;2023-07-02T08:17:55;23.03;;;12.27;;
9128;SDS011;4599;50.906;6.786;2023-07-02T08:21:58;22.77;;;12.93;;
9128;SDS011;4599;50.906;6.786;2023-07-02T08:25:59;21.73;;;11.13;;
9128;SDS011;4599;50.906;6.786;2023-07-02T08:30:01;26.43;;;12.53;;
9128;SDS011;4599;50.906;6.786;2023-07-02T08:34:03;23.20;;;11.27;;
9128;SDS011;4599;50.906;6.786;2023-07-02T08:38:05;25.67;;;11.67;;
9128;SDS011;4599;50.906;6.786;2023-07-02T08:42:07;23.43;;;11.77;;
9128;SDS011;4599;50.906;6.786;2023-07-02T08:46:09;23.20;;;11.50;;
9128;SDS011;4599;50.906;6.786;2023-07-02T08:50:13;22.93;;;11.63;;
9128;SDS011;4599;50.906;6.786;2023-07-02T08:54:18;25.37;;;12.20;;
9128;SDS011;4599;50.906;6.786;2023-07-02T08:58:19;21.07;;;11.07;;
9128;SDS011;4599;50.906;6.786;2023-07-02T09:02:29;22.90;;;11.53;;
9128;SDS011;4599;50.906;6.786;2023-07-02T09:06:32;22.03;;;12.03;;
9128;SDS011;4599;50.906;6.786;2023-07-02T09:10:35;23.80;;;11.93;;
9128;SDS011;4599;50.906;6.786;2023-07-02T09:14:36;23.57;;;11.03;;
9128;SDS011;4599;50.906;6.786;2023-07-02T09:18:38;24.47;;;12.07;;
9128;SDS011;4599;50.906;6.786;2023-07-02T09:22:40;24.23;;;12.27;;
9128;SDS011;4599;50.906;6.786;2023-07-02T09:26:45;24.07;;;12.90;;
9128;SDS011;4599;50.906;6.786;2023-07-02T09:30:50;22.67;;;12.80;;
9128;SDS011;4599;50.906;6.786;2023-07-02T09:34:56;22.23;;;12.30;;
9128;SDS011;4599;50.906;6.786;2023-07-02T09:38:59;23.63;;;12.70;;
9128;SDS011;4599;50.906;6.786;2023-07-02T09:43:02;22.73;;;11.73;;
9128;SDS011;4599;50.906;6.786;2023-07-02T09:47:04;20.30;;;12.47;;
9128;SDS011;4599;50.906;6.786;2023-07-02T09:51:07;23.10;;;12.50;;
9128;SDS011;4599;50.906;6.786;2023-07-02T09:55:09;27.17;;;12.20;;
9128;SDS011;4599;50.906;6.786;2023-07-02T09:59:12;21.03;;;11.90;;
9128;SDS011;4599;50.906;6.786;2023-07-02T10:03:14;21.43;;;12.87;;
9128;SDS011;4599;50.906;6.786;2023-07-02T10:07:25;23.37;;;12.03;;
9128;SDS011;4599;50.906;6.786;2023-07-02T10:11:32;18.97;;;10.97;;
9128;SDS011;4599;50.906;6.786;2023-07-02T10:15:36;20.33;;;11.30;;
9128;SDS011;4599;50.906;6.786;2023-07-02T10:19:37;16.00;;;10.57;;
9128;SDS011;4599;50.906;6.786;2023-07-02T10:23:52;19.10;;;11.03;;
9128;SDS011;4599;50.906;6.786;2023-07-02T10:27:54;23.37;;;10.67;;
9128;SDS011;4599;50.906;6.786;2023-07-02T10:31:57;25.30;;;11.73;;
9128;SDS011;4599;50.906;6.786;2023-07-02T10:35:59;21.40;;;11.27;;
9128;SDS011;4599;50.906;6.786;2023-07-02T10:40:02;19.47;;;10.63;;
9128;SDS011;4599;50.906;6.786;2023-07-02T10:44:07;18.77;;;10.47;;
9128;SDS011;4599;50.906;6.786;2023-07-02T10:48:11;25.20;;;11.10;;
9128;SDS011;4599;50.906;6.786;2023-07-02T10:52:12;18.07;;;11.03;;
9128;SDS011;4599;50.906;6.786;2023-07-02T10:56:17;22.67;;;11.07;;
9128;SDS011;4599;50.906;6.786;2023-07-02T11:00:19;18.90;;;10.73;;
9128;SDS011;4599;50.906;6.786;2023-07-02T11:04:22;18.77;;;10.13;;
9128;SDS011;4599;50.906;6.786;2023-07-02T11:08:24;19.80;;;10.70;;
9128;SDS011;4599;50.906;6.786;2023-07-02T11:12:35;20.23;;;11.33;;
9128;SDS011;4599;50.906;6.786;2023-07-02T11:16:37;20.73;;;11.47;;
9128;SDS011;4599;50.906;6.786;2023-07-02T11:20:41;20.20;;;11.00;;
9128;SDS011;4599;50.906;6.786;2023-07-02T11:24:44;19.80;;;11.20;;
9128;SDS011;4599;50.906;6.786;2023-07-02T11:28:49;21.67;;;11.57;;
9128;SDS011;4599;50.906;6.786;2023-07-02T11:32:52;20.90;;;11.60;;
9128;SDS011;4599;50.906;6.786;2023-07-02T11:36:56;22.70;;;11.27;;
9128;SDS011;4599;50.906;6.786;2023-07-02T11:40:58;21.30;;;10.73;;
9128;SDS011;4599;50.906;6.786;2023-07-02T11:45:02;20.67;;;10.87;;
9128;SDS011;4599;50.906;6.786;2023-07-02T11:49:04;23.87;;;10.57;;
9128;SDS011;4599;50.906;6.786;2023-07-02T11:53:07;20.10;;;10.70;;
9128;SDS011;4599;50.906;6.786;2023-07-02T11:57:08;18.00;;;9.47;;
9128;SDS011;4599;50.906;6.786;2023-07-02T12:01:10;15.40;;;9.07;;
9128;SDS011;4599;50.906;6.786;2023-07-02T12:05:12;16.80;;;9.67;;
9128;SDS011;4599;50.906;6.786;2023-07-02T12:09:15;18.50;;;9.17;;
9128;SDS011;4599;50.906;6.786;2023-07-02T12:13:16;14.47;;;7.90;;
9128;SDS011;4599;50.906;6.786;2023-07-02T12:17:18;20.47;;;8.43;;
9128;SDS011;4599;50.906;6.786;2023-07-02T12:21:20;18.57;;;8.20;;
9128;SDS011;4599;50.906;6.786;2023-07-02T12:25:23;17.97;;;8.87;;
9128;SDS011;4599;50.906;6.786;2023-07-02T12:29:24;15.33;;;8.20;;
9128;SDS011;4599;50.906;6.786;2023-07-02T12:33:26;13.60;;;8.67;;
9128;SDS011;4599;50.906;6.786;2023-07-02T12:37:27;19.17;;;8.37;;
9128;SDS011;4599;50.906;6.786;2023-07-02T12:41:30;15.40;;;8.83;;
9128;SDS011;4599;50.906;6.786;2023-07-02T12:45:32;16.20;;;8.67;;
9128;SDS011;4599;50.906;6.786;2023-07-02T12:49:33;13.70;;;8.20;;
9128;SDS011;4599;50.906;6.786;2023-07-02T12:53:35;16.97;;;9.17;;
9128;SDS011;4599;50.906;6.786;2023-07-02T12:57:39;15.60;;;8.90;;
9128;SDS011;4599;50.906;6.786;2023-07-02T13:01:40;15.47;;;8.33;;
9128;SDS011;4599;50.906;6.786;2023-07-02T13:05:42;16.93;;;8.40;;
9128;SDS011;4599;50.906;6.786;2023-07-02T13:09:44;15.10;;;8.93;;
9128;SDS011;4599;50.906;6.786;2023-07-02T13:13:47;17.53;;;9.23;;
9128;SDS011;4599;50.906;6.786;2023-07-02T13:17:49;19.07;;;9.53;;
9128;SDS011;4599;50.906;6.786;2023-07-02T13:21:50;20.13;;;9.50;;
9128;SDS011;4599;50.906;6.786;2023-07-02T13:25:52;20.63;;;9.40;;
9128;SDS011;4599;50.906;6.786;2023-07-02T13:29:55;23.63;;;9.10;;
9128;SDS011;4599;50.906;6.786;2023-07-02T13:33:57;16.60;;;9.03;;
9128;SDS011;4599;50.906;6.786;2023-07-02T13:37:59;21.87;;;9.80;;
9128;SDS011;4599;50.906;6.786;2023-07-02T13:42:00;18.90;;;8.80;;
9128;SDS011;4599;50.906;6.786;2023-07-02T13:46:03;16.97;;;8.93;;
9128;SDS011;4599;50.906;6.786;2023-07-02T13:50:05;18.23;;;8.57;;
9128;SDS011;4599;50.906;6.786;2023-07-02T13:54:11;23.10;;;9.07;;
9128;SDS011;4599;50.906;6.786;2023-07-02T13:58:13;22.73;;;9.40;;
9128;SDS011;4599;50.906;6.786;2023-07-02T14:02:26;15.87;;;9.03;;
9128;SDS011;4599;50.906;6.786;2023-07-02T14:06:28;17.50;;;9.07;;
9128;SDS011;4599;50.906;6.786;2023-07-02T14:10:31;15.10;;;8.77;;
9128;SDS011;4599;50.906;6.786;2023-07-02T14:14:33;19.40;;;9.20;;
9128;SDS011;4599;50.906;6.786;2023-07-02T14:18:36;17.73;;;9.07;;
9128;SDS011;4599;50.906;6.786;2023-07-02T14:22:38;17.67;;;8.93;;
9128;SDS011;4599;50.906;6.786;2023-07-02T14:26:40;14.00;;;8.37;;
9128;SDS011;4599;50.906;6.786;2023-07-02T14:30:41;17.07;;;9.30;;
9128;SDS011;4599;50.906;6.786;2023-07-02T14:34:44;17.77;;;9.27;;
9128;SDS011;4599;50.906;6.786;2023-07-02T14:38:46;16.53;;;9.00;;
9128;SDS011;4599;50.906;6.786;2023-07-02T14:42:47;15.17;;;8.87;;
9128;SDS011;4599;50.906;6.786;2023-07-02T14:46:49;15.87;;;8.57;;
9128;SDS011;4599;50.906;6.786;2023-07-02T14:50:53;14.40;;;8.27;;
9128;SDS011;4599;50.906;6.786;2023-07-02T14:54:55;14.57;;;8.37;;
9128;SDS011;4599;50.906;6.786;2023-07-02T14:58:57;19.00;;;9.10;;
9128;SDS011;4599;50.906;6.786;2023-07-02T15:03:00;16.27;;;8.63;;
9128;SDS011;4599;50.906;6.786;2023-07-02T15:07:03;19.30;;;9.00;;
9128;SDS011;4599;50.906;6.786;2023-07-02T15:11:05;19.80;;;9.33;;
9128;SDS011;4599;50.906;6.786;2023-07-02T15:15:07;19.80;;;9.17;;
9128;SDS011;4599;50.906;6.786;2023-07-02T15:19:09;23.20;;;8.87;;
9128;SDS011;4599;50.906;6.786;2023-07-02T15:23:12;16.83;;;8.63;;
9128;SDS011;4599;50.906;6.786;2023-07-02T15:27:14;16.30;;;8.80;;
9128;SDS011;4599;50.906;6.786;2023-07-02T15:31:15;20.17;;;9.27;;
9128;SDS011;4599;50.906;6.786;2023-07-02T15:35:19;20.63;;;10.10;;
9128;SDS011;4599;50.906;6.786;2023-07-02T15:39:22;17.43;;;10.03;;
9128;SDS011;4599;50.906;6.786;2023-07-02T15:43:25;20.33;;;9.40;;
9128;SDS011;4599;50.906;6.786;2023-07-02T15:47:26;20.10;;;9.93;;
9128;SDS011;4599;50.906;6.786;2023-07-02T15:51:28;18.40;;;9.50;;
9128;SDS011;4599;50.906;6.786;2023-07-02T15:55:33;19.00;;;9.67;;
9128;SDS011;4599;50.906;6.786;2023-07-02T15:59:35;18.00;;;10.07;;
9128;SDS011;4599;50.906;6.786;2023-07-02T16:03:39;18.57;;;9.80;;
9128;SDS011;4599;50.906;6.786;2023-07-02T16:07:41;20.43;;;10.07;;
9128;SDS011;4599;50.906;6.786;2023-07-02T16:11:44;20.17;;;9.10;;
9128;SDS011;4599;50.906;6.786;2023-07-02T16:15:46;18.40;;;10.03;;
9128;SDS011;4599;50.906;6.786;2023-07-02T16:19:48;24.67;;;9.37;;
9128;SDS011;4599;50.906;6.786;2023-07-02T16:23:50;18.60;;;9.63;;
9128;SDS011;4599;50.906;6.786;2023-07-02T16:27:53;20.13;;;9.20;;
9128;SDS011;4599;50.906;6.786;2023-07-02T16:31:56;17.73;;;9.03;;
9128;SDS011;4599;50.906;6.786;2023-07-02T16:36:02;20.37;;;9.63;;
9128;SDS011;4599;50.906;6.786;2023-07-02T16:40:05;23.07;;;10.67;;
9128;SDS011;4599;50.906;6.786;2023-07-02T16:44:08;20.63;;;9.67;;
9128;SDS011;4599;50.906;6.786;2023-07-02T16:48:10;17.57;;;9.07;;
9128;SDS011;4599;50.906;6.786;2023-07-02T16:52:21;16.57;;;9.40;;
9128;SDS011;4599;50.906;6.786;2023-07-02T16:56:23;21.33;;;9.33;;
9128;SDS011;4599;50.906;6.786;2023-07-02T17:00:25;17.00;;;8.90;;
9128;SDS011;4599;50.906;6.786;2023-07-02T17:04:27;15.70;;;8.40;;
9128;SDS011;4599;50.906;6.786;2023-07-02T17:08:33;17.93;;;10.13;;
9128;SDS011;4599;50.906;6.786;2023-07-02T17:12:36;16.47;;;8.63;;
9128;SDS011;4599;50.906;6.786;2023-07-02T17:16:38;16.80;;;8.50;;
9128;SDS011;4599;50.906;6.786;2023-07-02T17:20:40;15.17;;;7.83;;
9128;SDS011;4599;50.906;6.786;2023-07-02T17:24:42;16.93;;;8.67;;
9128;SDS011;4599;50.906;6.786;2023-07-02T17:28:45;18.00;;;8.20;;
9128;SDS011;4599;50.906;6.786;2023-07-02T17:32:48;18.47;;;8.73;;
9128;SDS011;4599;50.906;6.786;2023-07-02T17:36:51;20.33;;;9.17;;
9128;SDS011;4599;50.906;6.786;2023-07-02T17:40:54;19.63;;;8.87;;
9128;SDS011;4599;50.906;6.786;2023-07-02T17:44:55;16.17;;;8.90;;
9128;SDS011;4599;50.906;6.786;2023-07-02T17:49:00;20.27;;;8.73;;
9128;SDS011;4599;50.906;6.786;2023-07-02T17:53:02;21.30;;;8.83;;
9128;SDS011;4599;50.906;6.786;2023-07-02T17:57:04;19.07;;;9.23;;
9128;SDS011;4599;50.906;6.786;2023-07-02T18:01:07;18.90;;;8.87;;
9128;SDS011;4599;50.906;6.786;2023-07-02T18:05:10;17.50;;;8.77;;
9128;SDS011;4599;50.906;6.786;2023-07-02T18:09:12;18.80;;;8.87;;
9128;SDS011;4599;50.906;6.786;2023-07-02T18:13:15;17.70;;;8.73;;
9128;SDS011;4599;50.906;6.786;2023-07-02T18:17:17;18.77;;;8.97;;
9128;SDS011;4599;50.906;6.786;2023-07-02T18:21:20;17.87;;;8.60;;
9128;SDS011;4599;50.906;6.786;2023-07-02T18:25:21;22.37;;;8.90;;
9128;SDS011;4599;50.906;6.786;2023-07-02T18:29:23;17.40;;;8.23;;
9128;SDS011;4599;50.906;6.786;2023-07-02T18:33:24;19.13;;;8.17;;
9128;SDS011;4599;50.906;6.786;2023-07-02T18:37:28;19.20;;;8.50;;
9128;SDS011;4599;50.906;6.786;2023-07-02T18:41:29;19.80;;;8.57;;
9128;SDS011;4599;50.906;6.786;2023-07-02T18:45:31;16.30;;;7.20;;
9128;SDS011;4599;50.906;6.786;2023-07-02T18:49:34;21.37;;;8.23;;
9128;SDS011;4599;50.906;6.786;2023-07-02T18:53:38;18.00;;;7.97;;
9128;SDS011;4599;50.906;6.786;2023-07-02T18:57:40;15.77;;;7.63;;
9128;SDS011;4599;50.906;6.786;2023-07-02T19:01:41;22.83;;;7.83;;
9128;SDS011;4599;50.906;6.786;2023-07-02T19:05:44;15.23;;;7.23;;
9128;SDS011;4599;50.906;6.786;2023-07-02T19:09:47;16.80;;;7.57;;
9128;SDS011;4599;50.906;6.786;2023-07-02T19:13:49;20.47;;;7.63;;
9128;SDS011;4599;50.906;6.786;2023-07-02T19:17:51;16.43;;;7.40;;
9128;SDS011;4599;50.906;6.786;2023-07-02T19:21:52;15.53;;;7.77;;
9128;SDS011;4599;50.906;6.786;2023-07-02T19:25:55;19.43;;;7.80;;
9128;SDS011;4599;50.906;6.786;2023-07-02T19:29:57;17.07;;;7.80;;
9128;SDS011;4599;50.906;6.786;2023-07-02T19:33:58;18.83;;;7.70;;
9128;SDS011;4599;50.906;6.786;2023-07-02T19:38:00;19.67;;;7.73;;
9128;SDS011;4599;50.906;6.786;2023-07-02T19:42:04;15.80;;;7.60;;
9128;SDS011;4599;50.906;6.786;2023-07-02T19:46:05;17.60;;;8.17;;
9128;SDS011;4599;50.906;6.786;2023-07-02T19:50:07;14.83;;;7.53;;
9128;SDS011;4599;50.906;6.786;2023-07-02T19:54:09;21.33;;;8.00;;
9128;SDS011;4599;50.906;6.786;2023-07-02T19:58:12;15.07;;;7.10;;
9128;SDS011;4599;50.906;6.786;2023-07-02T20:02:14;19.17;;;7.27;;
9128;SDS011;4599;50.906;6.786;2023-07-02T20:06:17;15.47;;;7.03;;
9128;SDS011;4599;50.906;6.786;2023-07-02T20:10:19;15.43;;;6.83;;
9128;SDS011;4599;50.906;6.786;2023-07-02T20:14:22;16.13;;;7.43;;
9128;SDS011;4599;50.906;6.786;2023-07-02T20:18:24;20.37;;;7.60;;
9128;SDS011;4599;50.906;6.786;2023-07-02T20:22:25;19.50;;;7.20;;
9128;SDS011;4599;50.906;6.786;2023-07-02T20:26:29;17.77;;;7.37;;
9128;SDS011;4599;50.906;6.786;2023-07-02T20:30:32;16.57;;;7.73;;
9128;SDS011;4599;50.906;6.786;2023-07-02T20:34:34;17.27;;;7.30;;
9128;SDS011;4599;50.906;6.786;2023-07-02T20:38:36;19.03;;;6.57;;
9128;SDS011;4599;50.906;6.786;2023-07-02T20:42:37;16.10;;;6.50;;
9128;SDS011;4599;50.906;6.786;2023-07-02T20:46:40;16.37;;;6.50;;
9128;SDS011;4599;50.906;6.786;2023-07-02T20:50:43;15.03;;;6.73;;
9128;SDS011;4599;50.906;6.786;2023-07-02T20:54:48;16.60;;;6.33;;
9128;SDS011;4599;50.906;6.786;2023-07-02T20:58:52;17.77;;;6.53;;
9128;SDS011;4599;50.906;6.786;2023-07-02T21:02:55;16.67;;;6.53;;
9128;SDS011;4599;50.906;6.786;2023-07-02T21:06:56;16.87;;;6.00;;
9128;SDS011;4599;50.906;6.786;2023-07-02T21:10:58;16.83;;;6.00;;
9128;SDS011;4599;50.906;6.786;2023-07-02T21:15:00;11.77;;;4.97;;
9128;SDS011;4599;50.906;6.786;2023-07-02T21:19:03;18.23;;;5.47;;
9128;SDS011;4599;50.906;6.786;2023-07-02T21:23:04;14.33;;;4.63;;
9128;SDS011;4599;50.906;6.786;2023-07-02T21:27:06;11.93;;;4.30;;
9128;SDS011;4599;50.906;6.786;2023-07-02T21:31:10;14.27;;;4.70;;
9128;SDS011;4599;50.906;6.786;2023-07-02T21:35:14;12.93;;;3.87;;
9128;SDS011;4599;50.906;6.786;2023-07-02T21:39:16;8.20;;;3.13;;
9128;SDS011;4599;50.906;6.786;2023-07-02T21:43:18;14.60;;;3.97;;
9128;SDS011;4599;50.906;6.786;2023-07-02T21:47:19;17.27;;;4.27;;
9128;SDS011;4599;50.906;6.786;2023-07-02T21:51:22;10.83;;;3.30;;
9128;SDS011;4599;50.906;6.786;2023-07-02T21:55:24;8.87;;;3.13;;
9128;SDS011;4599;50.906;6.786;2023-07-02T21:59:26;13.83;;;3.30;;
9128;SDS011;4599;50.906;6.786;2023-07-02T22:03:27;11.30;;;3.30;;
9128;SDS011;4599;50.906;6.786;2023-07-02T22:07:30;12.17;;;3.63;;
9128;SDS011;4599;50.906;6.786;2023-07-02T22:11:32;10.23;;;3.00;;
9128;SDS011;4599;50.906;6.786;2023-07-02T22:15:33;13.27;;;3.43;;
9128;SDS011;4599;50.906;6.786;2023-07-02T22:19:35;9.73;;;3.13;;
9128;SDS011;4599;50.906;6.786;2023-07-02T22:23:38;12.23;;;3.37;;
9128;SDS011;4599;50.906;6.786;2023-07-02T22:27:40;13.17;;;3.40;;
9128;SDS011;4599;50.906;6.786;2023-07-02T22:31:42;16.73;;;3.60;;
9128;SDS011;4599;50.906;6.786;2023-07-02T22:35:43;9.60;;;3.33;;
9128;SDS011;4599;50.906;6.786;2023-07-02T22:39:47;18.63;;;3.70;;
9128;SDS011;4599;50.906;6.786;2023-07-02T22:43:48;12.80;;;3.60;;
9128;SDS011;4599;50.906;6.786;2023-07-02T22:47:50;10.43;;;3.07;;
9128;SDS011;4599;50.906;6.786;2023-07-02T22:51:51;12.27;;;3.23;;
9128;SDS011;4599;50.906;6.786;2023-07-02T22:55:54;12.67;;;3.50;;
9128;SDS011;4599;50.906;6.786;2023-07-02T22:59:56;12.07;;;3.93;;
9128;SDS011;4599;50.906;6.786;2023-07-02T23:03:57;10.93;;;3.10;;
9128;SDS011;4599;50.906;6.786;2023-07-02T23:07:59;13.40;;;3.20;;
9128;SDS011;4599;50.906;6.786;2023-07-02T23:12:02;11.57;;;2.93;;
9128;SDS011;4599;50.906;6.786;2023-07-02T23:16:04;8.63;;;2.97;;
9128;SDS011;4599;50.906;6.786;2023-07-02T23:20:06;12.20;;;3.47;;
9128;SDS011;4599;50.906;6.786;2023-07-02T23:24:08;14.00;;;3.27;;
9128;SDS011;4599;50.906;6.786;2023-07-02T23:28:11;11.83;;;4.30;;
9128;SDS011;4599;50.906;6.786;2023-07-02T23:32:12;12.80;;;3.90;;
9128;SDS011;4599;50.906;6.786;2023-07-02T23:36:27;11.57;;;3.57;;
9128;SDS011;4599;50.906;6.786;2023-07-02T23:40:29;11.87;;;3.13;;
9128;SDS011;4599;50.906;6.786;2023-07-02T23:44:33;14.93;;;3.40;;
9128;SDS011;4599;50.906;6.786;2023-07-02T23:48:34;11.70;;;3.10;;
9128;SDS011;4599;50.906;6.786;2023-07-02T23:52:36;15.27;;;3.87;;
9128;SDS011;4599;50.906;6.786;2023-07-02T23:56:39;12.17;;;3.60;;
